Share

Cochabamba, Bolivia

6:59 PM BOT en Abril 23, 2014 (GMT -0400)
Jorge Wilsterman (SLCB) Alt 8360 ft | 17.42 °S, 66.18 °W | Change Station

Current weather conditions updated 59 minutes ago

Light Rain Showers
Lluvia débil
66 ° F
Sensación térmica 66 ° F
N
5
Viento Variable Viento desde NNO
Amanecer 6:35 AM
Atardecer 6:10 PM
Luna Creciente menguante

Mañana se prevé un día Más cálido que hoy. Chubascos matinales..

Presión 30.27 pul
Visibilidad 5.6 Millas
Nubes Nubes dispersas 2700 ft
Baja 3000 ft
Nubes dispersas 7000 ft
Muy nublado 20000 ft
Punto de rocío 48 ° F
Humedad 52%
Precipitaciones 0.00 pul
Espesor de la nieve No disponible.
UV 0 de una escala de 16
Polen No disponible.
Calidad del aire No disponible.
Flu Activity No disponible.
METAR SLCB 232200Z 33004KT 9000 -SHRA SCT027 FEW030CB SCT070 BKN200 19/09 Q1025

More Conditions Fewer Conditions

Presión 30.27 pul
Visibilidad 5.6 Millas
Nubes Nubes dispersas 2700 ft
Baja 3000 ft
Nubes dispersas 7000 ft
Muy nublado 20000 ft
Punto de rocío 48 ° F
Humedad 52%
Precipitaciones 0.00 pul
Espesor de la nieve No disponible.
UV 0 de una escala de 16
Polen No disponible.
Calidad del aire No disponible.
Flu Activity No disponible.
METAR SLCB 232200Z 33004KT 9000 -SHRA SCT027 FEW030CB SCT070 BKN200 19/09 Q1025

More Conditions Fewer Conditions

10-Day Weather Forecast

Almanac

Astronomía

Apr. 23, 2014 Salida Puesta
Hora real 6:35 AM BOT 6:10 PM BOT
Crepúsculo civil 6:13 AM BOT 6:32 PM BOT
Crepúsculo náutico 5:47 AM BOT 6:58 PM BOT
Crepúsculo astronómico 5:22 AM BOT 7:23 PM BOT
Luna 1:08 AM BOT 2:01 PM BOT
Horas de luz 12h 19m
Horas de luz
11h 34m
Tomorrow will be 0m 52s shorter.
Creciente menguante, 32% of the Moon is Illuminated
Hoy
Creciente menguante
Abr 29
Nueva
May 6
Cuarto creciente
May 14
Luna llena
May 21
Cuarto menguante

Extremos de hoy

Máximos del país Bajas del país

Community

  • Nestled In
    Nestled In
  • Stunning Sunrise
    Stunning Sunrise
  • spring flowers
    spring flowers
  • Earth Day Spectrum Ove' Blue
    Earth Day Spectrum Ove' Blue
  • BARN B&W
    BARN B&W

WunderPhotos

Upload Photos

1,704,442 ¡fotos cargadas!

WunderBlogs® & News

Nearby

Calidad del aire

Not available.

Grosos de nieve

Not available.

Temperaturas de aguas costeras

Lugar Temperatura
Sin partes meteorológicos de las estaciones

Actividad de terremotos

Ciudad Distance Mag. Tiempo y dato
No hay informes recientes de la actividad sísmica.
Magnitud mínima muestra es 2,5.

Estaciones meteorológicas cercanas

No hay estaciones meteorológicas personales en esta zona.

What do you think?

We're not finished. Please let us know what you like, what you don't like, and what you are still missing.